createdAt,value
2019-05-13T00:00:24.421Z,41.92
2019-05-13T00:01:24.457Z,41.51
2019-05-13T00:02:24.402Z,41.41
2019-05-13T00:03:24.397Z,41.92
2019-05-13T00:04:24.383Z,42.04
2019-05-13T00:05:24.420Z,41.63
2019-05-13T00:06:24.355Z,42.14
2019-05-13T00:07:24.357Z,41.73
2019-05-13T00:08:24.963Z,41.22
2019-05-13T00:09:24.644Z,41.83
2019-05-13T00:10:24.482Z,41.53
2019-05-13T00:11:24.304Z,41.94
2019-05-13T00:12:24.289Z,41.42
2019-05-13T00:13:24.288Z,41.94
2019-05-13T00:14:24.316Z,41.33
2019-05-13T00:15:24.410Z,41.73
2019-05-13T00:16:24.290Z,41.94
2019-05-13T00:17:24.359Z,41.83
2019-05-13T00:18:24.240Z,41.63
2019-05-13T00:19:24.246Z,41.33
2019-05-13T00:20:24.271Z,41.63
2019-05-13T00:21:24.227Z,41.73
2019-05-13T00:22:24.190Z,41.42
2019-05-13T00:23:24.177Z,41.83
2019-05-13T00:24:24.403Z,41.94
2019-05-13T00:25:24.306Z,41.85
2019-05-13T00:26:24.509Z,41.83
2019-05-13T00:27:24.135Z,42.16
2019-05-13T00:28:24.132Z,41.65
2019-05-13T00:29:24.107Z,42.26
2019-05-13T00:30:24.102Z,42.26
2019-05-13T00:31:24.294Z,41.65
2019-05-13T00:32:24.081Z,41.65
2019-05-13T00:33:24.507Z,41.96
2019-05-13T00:34:24.450Z,41.65
2019-05-13T00:35:24.047Z,41.65
2019-05-13T00:36:24.366Z,42.77
2019-05-13T00:37:24.479Z,42.06
2019-05-13T00:38:24.529Z,41.75
2019-05-13T00:39:24.618Z,42.57
2019-05-13T00:40:24.107Z,41.96
2019-05-13T00:41:24.502Z,41.96
2019-05-13T00:42:24.617Z,42.36
2019-05-13T00:43:24.534Z,42.36
2019-05-13T00:44:24.488Z,43.18
2019-05-13T00:45:24.493Z,43.69
2019-05-13T00:46:23.953Z,43.51
2019-05-13T00:47:23.918Z,43.90
2019-05-13T00:48:23.906Z,44.12
2019-05-13T00:49:24.052Z,44.32
2019-05-13T00:50:24.163Z,44.31
2019-05-13T00:51:24.391Z,44.81
2019-05-13T00:52:23.866Z,43.30
2019-05-13T00:53:23.904Z,43.79
2019-05-13T00:54:23.843Z,44.10
2019-05-13T00:55:23.921Z,44.12
2019-05-13T00:56:23.871Z,44.31
2019-05-13T00:57:23.907Z,44.02
2019-05-13T00:58:24.389Z,44.02
2019-05-13T00:59:24.215Z,44.02
2019-05-13T01:00:24.336Z,44.32
2019-05-13T01:01:24.396Z,44.02
2019-05-13T01:02:24.309Z,44.53
2019-05-13T01:03:26.321Z,44.63
2019-05-13T01:04:23.733Z,44.45
2019-05-13T01:05:23.725Z,44.12
2019-05-13T01:06:23.810Z,44.22
2019-05-13T01:07:28.614Z,44.94
2019-05-13T01:08:24.696Z,44.84
2019-05-13T01:09:23.846Z,44.45
2019-05-13T01:10:23.838Z,44.85
2019-05-13T01:11:23.789Z,44.94
2019-05-13T01:12:23.871Z,44.55
2019-05-13T01:13:23.879Z,45.67
2019-05-13T01:14:23.669Z,45.67
2019-05-13T01:15:24.704Z,45.88
2019-05-13T01:16:23.642Z,45.67
2019-05-13T01:17:23.694Z,45.67
2019-05-13T01:18:23.593Z,45.47
2019-05-13T01:19:23.819Z,46.08
2019-05-13T01:20:23.674Z,45.67
2019-05-13T01:21:24.042Z,45.78
2019-05-13T01:22:23.927Z,45.78
2019-05-13T01:23:24.154Z,46.29
2019-05-13T01:24:24.350Z,46.49
2019-05-13T01:25:24.369Z,46.00
2019-05-13T01:26:23.545Z,45.80
2019-05-13T01:27:23.973Z,45.98
2019-05-13T01:28:23.923Z,46.21
2019-05-13T01:29:23.908Z,46.39
2019-05-13T01:30:23.874Z,46.29
2019-05-13T01:31:24.059Z,46.59
2019-05-13T01:32:23.949Z,46.21
2019-05-13T01:33:23.695Z,46.19
2019-05-13T01:34:23.726Z,46.41
2019-05-13T01:35:23.722Z,46.21
2019-05-13T01:36:23.557Z,46.41
2019-05-13T01:37:32.198Z,46.51
2019-05-13T01:38:24.379Z,46.82
2019-05-13T01:39:24.322Z,46.62
2019-05-13T01:40:23.920Z,47.03
2019-05-13T01:41:24.067Z,46.84
2019-05-13T01:42:24.151Z,47.53
2019-05-13T01:43:24.559Z,46.51
2019-05-13T01:44:33.558Z,47.13
2019-05-13T01:45:24.091Z,46.51
2019-05-13T01:46:24.148Z,47.53
2019-05-13T01:47:24.045Z,47.35
2019-05-13T01:48:24.065Z,46.53
2019-05-13T01:49:24.074Z,47.33
2019-05-13T01:50:24.177Z,47.05
2019-05-13T01:51:23.991Z,48.07
2019-05-13T01:52:23.809Z,47.56
2019-05-13T01:53:24.343Z,47.86
2019-05-13T01:54:24.663Z,48.07
2019-05-13T01:55:24.458Z,48.58
2019-05-13T01:56:23.633Z,47.76
2019-05-13T01:57:23.771Z,47.86
2019-05-13T01:58:23.681Z,48.07
2019-05-13T01:59:23.910Z,48.07
2019-05-13T02:00:24.216Z,47.86
2019-05-13T02:01:24.174Z,48.48
2019-05-13T02:02:24.272Z,48.68
2019-05-13T02:03:24.589Z,48.40
2019-05-13T02:04:24.434Z,48.50
2019-05-13T02:05:24.214Z,48.68
2019-05-13T02:06:24.081Z,48.17
2019-05-13T02:07:24.395Z,48.30
2019-05-13T02:08:24.496Z,48.60
2019-05-13T02:09:24.478Z,48.68
2019-05-13T02:10:24.584Z,48.50
2019-05-13T02:11:23.941Z,49.32
2019-05-13T02:12:24.106Z,49.22
2019-05-13T02:13:24.452Z,49.42
2019-05-13T02:14:23.686Z,49.63
2019-05-13T02:15:23.347Z,49.73
2019-05-13T02:16:24.367Z,49.11
2019-05-13T02:17:23.459Z,49.32
2019-05-13T02:18:24.492Z,49.11
2019-05-13T02:19:24.519Z,49.01
2019-05-13T02:20:24.764Z,49.11
2019-05-13T02:21:24.108Z,49.32
2019-05-13T02:22:24.793Z,49.52
2019-05-13T02:23:23.850Z,49.32
2019-05-13T02:24:23.685Z,49.42
2019-05-13T02:25:23.741Z,49.73
2019-05-13T02:26:24.023Z,49.63
2019-05-13T02:27:24.901Z,49.55
2019-05-13T02:28:24.747Z,49.52
2019-05-13T02:29:24.554Z,49.63
2019-05-13T02:30:22.816Z,49.55
2019-05-13T02:31:39.098Z,49.85
2019-05-13T02:32:23.830Z,49.85
2019-05-13T02:33:23.211Z,50.06
2019-05-13T02:34:23.351Z,49.93
2019-05-13T02:35:23.192Z,50.24
2019-05-13T02:36:23.053Z,50.14
2019-05-13T02:37:23.275Z,50.06
2019-05-13T02:38:26.282Z,50.26
2019-05-13T02:39:23.744Z,50.78
2019-05-13T02:40:22.837Z,50.16
2019-05-13T02:41:23.061Z,50.26
2019-05-13T02:42:23.059Z,50.26
2019-05-13T02:43:23.843Z,50.37
2019-05-13T02:44:22.834Z,50.06
2019-05-13T02:45:22.824Z,50.16
2019-05-13T02:46:22.790Z,50.78
2019-05-13T02:47:22.832Z,50.47
2019-05-13T02:48:23.536Z,51.01
2019-05-13T02:49:23.301Z,50.67
2019-05-13T02:50:22.831Z,50.67
2019-05-13T02:51:23.183Z,50.98
2019-05-13T02:52:22.586Z,51.39
2019-05-13T02:53:23.807Z,50.78
2019-05-13T02:54:23.001Z,51.39
2019-05-13T02:55:22.593Z,51.08
2019-05-13T02:56:22.833Z,50.88
2019-05-13T02:57:23.410Z,50.88
2019-05-13T02:58:24.524Z,50.80
2019-05-13T02:59:22.903Z,51.90
2019-05-13T03:00:23.612Z,50.80
2019-05-13T03:01:22.603Z,51.51
2019-05-13T03:02:22.651Z,51.72
2019-05-13T03:03:23.301Z,51.62
2019-05-13T03:04:23.369Z,51.42
2019-05-13T03:05:22.485Z,51.82
2019-05-13T03:06:22.533Z,51.72
2019-05-13T03:07:23.269Z,52.13
2019-05-13T03:08:38.511Z,51.72
2019-05-13T03:09:23.390Z,51.72
2019-05-13T03:10:22.520Z,52.13
2019-05-13T03:11:22.922Z,51.93
2019-05-13T03:12:23.006Z,52.95
2019-05-13T03:13:23.311Z,52.75
2019-05-13T03:14:23.969Z,52.95
2019-05-13T03:15:23.134Z,53.26
2019-05-13T03:16:23.049Z,53.05
2019-05-13T03:17:22.674Z,52.54
2019-05-13T03:18:22.769Z,52.64
2019-05-13T03:19:22.674Z,52.03
2019-05-13T03:20:23.193Z,52.34
2019-05-13T03:21:23.436Z,52.54
2019-05-13T03:22:22.639Z,52.85
2019-05-13T03:23:22.901Z,53.05
2019-05-13T03:24:23.036Z,52.87
2019-05-13T03:25:23.060Z,52.75
2019-05-13T03:26:23.429Z,52.75
2019-05-13T03:27:25.023Z,53.67
2019-05-13T03:28:22.612Z,53.77
2019-05-13T03:29:22.482Z,53.67
2019-05-13T03:30:25.468Z,52.23
2019-05-13T03:31:26.193Z,52.03
2019-05-13T03:32:26.150Z,51.93
2019-05-13T03:33:27.930Z,52.13
2019-05-13T03:34:26.266Z,52.75
2019-05-13T03:35:26.445Z,52.64
2019-05-13T03:36:25.797Z,52.64
2019-05-13T03:37:26.537Z,53.77
2019-05-13T03:38:23.083Z,53.97
2019-05-13T03:39:22.488Z,54.28
2019-05-13T03:40:23.068Z,53.26
2019-05-13T03:41:22.914Z,52.95
2019-05-13T03:42:22.679Z,53.16
2019-05-13T03:43:22.934Z,53.56
2019-05-13T03:44:23.770Z,52.95
2019-05-13T03:45:22.703Z,53.26
2019-05-13T03:46:23.002Z,54.28
2019-05-13T03:47:23.131Z,53.67
2019-05-13T03:48:23.566Z,53.56
2019-05-13T03:49:23.359Z,52.95
2019-05-13T03:50:22.881Z,54.28
2019-05-13T03:51:22.332Z,53.87
2019-05-13T03:52:22.663Z,54.18
2019-05-13T03:53:23.426Z,53.67
2019-05-13T03:54:22.841Z,53.46
2019-05-13T03:55:23.219Z,53.56
2019-05-13T03:56:23.588Z,53.56
2019-05-13T03:57:23.202Z,53.46
2019-05-13T03:58:23.858Z,53.56
2019-05-13T03:59:22.674Z,53.67
2019-05-13T04:00:23.642Z,53.16
2019-05-13T04:01:22.497Z,53.46
2019-05-13T04:02:22.755Z,53.56
2019-05-13T04:03:22.837Z,53.05
2019-05-13T04:04:23.399Z,52.75
2019-05-13T04:05:23.413Z,52.95
2019-05-13T04:06:23.226Z,53.26
2019-05-13T04:07:23.742Z,53.16
2019-05-13T04:08:22.851Z,53.05
2019-05-13T04:09:30.095Z,53.77
2019-05-13T04:10:23.365Z,53.87
2019-05-13T04:11:22.671Z,53.67
2019-05-13T04:12:22.762Z,53.97
2019-05-13T04:13:23.313Z,53.87
2019-05-13T04:14:22.894Z,53.16
2019-05-13T04:15:23.440Z,52.95
2019-05-13T04:16:23.793Z,53.56
2019-05-13T04:17:24.303Z,53.56
2019-05-13T04:18:23.495Z,53.08
2019-05-13T04:19:23.192Z,53.59
2019-05-13T04:20:23.083Z,52.95
2019-05-13T04:21:22.742Z,54.51
2019-05-13T04:22:23.001Z,54.61
2019-05-13T04:23:23.361Z,54.59
2019-05-13T04:24:22.913Z,53.46
2019-05-13T04:25:23.088Z,53.46
2019-05-13T04:26:23.572Z,54.31
2019-05-13T04:27:23.350Z,54.79
2019-05-13T04:28:22.327Z,54.49
2019-05-13T04:29:23.379Z,54.18
2019-05-13T04:30:22.515Z,54.41
2019-05-13T04:31:22.827Z,54.38
2019-05-13T04:32:22.966Z,54.69
2019-05-13T04:33:23.001Z,54.18
2019-05-13T04:34:22.930Z,54.00
2019-05-13T04:35:23.328Z,54.38
2019-05-13T04:36:23.434Z,54.00
2019-05-13T04:37:22.265Z,54.38
2019-05-13T04:38:22.689Z,54.69
2019-05-13T04:39:39.656Z,54.18
2019-05-13T04:40:23.343Z,54.10
2019-05-13T04:41:22.909Z,54.38
2019-05-13T04:42:23.147Z,54.10
2019-05-13T04:43:23.463Z,54.41
2019-05-13T04:44:24.018Z,54.49
2019-05-13T04:45:24.094Z,54.31
2019-05-13T04:46:22.868Z,54.51
2019-05-13T04:47:22.907Z,54.28
2019-05-13T04:48:22.905Z,54.51
2019-05-13T04:49:23.203Z,54.51
2019-05-13T04:50:22.459Z,54.61
2019-05-13T04:51:22.652Z,54.69
2019-05-13T04:52:22.221Z,55.41
2019-05-13T04:53:22.591Z,55.33
2019-05-13T04:54:22.522Z,55.43
2019-05-13T04:55:22.940Z,54.38
2019-05-13T04:56:22.361Z,54.31
2019-05-13T04:57:22.689Z,54.61
2019-05-13T04:58:23.526Z,55.33
2019-05-13T04:59:22.724Z,55.54
2019-05-13T05:00:23.344Z,55.43
2019-05-13T05:01:23.646Z,55.23
2019-05-13T05:02:22.299Z,55.33
2019-05-13T05:03:32.066Z,55.00
2019-05-13T05:04:28.733Z,54.28
2019-05-13T05:05:22.712Z,54.82
2019-05-13T05:06:22.741Z,55.54
2019-05-13T05:07:22.200Z,55.92
2019-05-13T05:08:22.484Z,55.51
2019-05-13T05:09:22.536Z,55.51
2019-05-13T05:10:30.472Z,55.82
2019-05-13T05:11:22.463Z,56.23
2019-05-13T05:12:23.098Z,56.23
2019-05-13T05:13:22.114Z,55.82
2019-05-13T05:14:22.423Z,55.92
2019-05-13T05:15:23.351Z,55.72
2019-05-13T05:16:21.946Z,55.92
2019-05-13T05:17:22.607Z,55.62
2019-05-13T05:18:22.219Z,56.43
2019-05-13T05:19:23.735Z,55.92
2019-05-13T05:20:23.057Z,56.23
2019-05-13T05:21:21.773Z,55.92
2019-05-13T05:22:22.195Z,56.43
2019-05-13T05:23:21.547Z,56.10
2019-05-13T05:24:22.221Z,56.54
2019-05-13T05:25:22.096Z,56.20
2019-05-13T05:26:22.062Z,56.41
2019-05-13T05:27:21.424Z,56.82
2019-05-13T05:28:21.794Z,56.71
2019-05-13T05:29:21.764Z,57.43
2019-05-13T05:30:21.784Z,56.82
2019-05-13T05:31:23.009Z,57.33
2019-05-13T05:32:21.537Z,57.51
2019-05-13T05:33:21.399Z,57.51
2019-05-13T05:34:21.960Z,56.48
2019-05-13T05:35:22.332Z,55.77
2019-05-13T05:36:21.786Z,56.99
2019-05-13T05:37:22.274Z,56.18
2019-05-13T05:38:23.756Z,55.97
2019-05-13T05:39:22.666Z,56.18
2019-05-13T05:40:30.945Z,56.99
2019-05-13T05:41:21.767Z,56.69
2019-05-13T05:42:21.734Z,57.10
2019-05-13T05:43:22.290Z,56.48
2019-05-13T05:44:21.449Z,56.99
2019-05-13T05:45:21.983Z,56.56
2019-05-13T05:46:22.036Z,56.15
2019-05-13T05:47:21.307Z,56.25
2019-05-13T05:48:22.139Z,57.07
2019-05-13T05:49:21.341Z,57.28
2019-05-13T05:50:23.000Z,56.56
2019-05-13T05:51:22.162Z,56.46
2019-05-13T05:52:21.363Z,56.46
2019-05-13T05:53:21.834Z,56.97
2019-05-13T05:54:21.821Z,56.66
2019-05-13T05:55:21.335Z,57.45
2019-05-13T05:56:22.011Z,56.56
2019-05-13T05:57:22.491Z,57.04
2019-05-13T05:58:22.880Z,57.17
2019-05-13T05:59:21.772Z,56.94
2019-05-13T06:00:21.995Z,57.15
2019-05-13T06:01:23.201Z,57.04
2019-05-13T06:02:23.025Z,56.51
2019-05-13T06:03:21.783Z,57.12
2019-05-13T06:04:21.831Z,57.15
2019-05-13T06:05:21.340Z,57.02
2019-05-13T06:06:22.715Z,57.22
2019-05-13T06:07:21.977Z,56.81
2019-05-13T06:08:22.206Z,56.51
2019-05-13T06:09:21.309Z,57.12
2019-05-13T06:10:22.510Z,56.30
2019-05-13T06:11:22.271Z,55.76
2019-05-13T06:12:21.402Z,55.99
2019-05-13T06:13:21.427Z,56.48
2019-05-13T06:14:21.907Z,55.46
2019-05-13T06:15:22.561Z,55.66
2019-05-13T06:16:21.808Z,55.46
2019-05-13T06:17:21.880Z,55.87
2019-05-13T06:18:22.224Z,55.63
2019-05-13T06:19:22.367Z,55.84
2019-05-13T06:20:21.164Z,54.41
2019-05-13T06:21:21.470Z,55.74
2019-05-13T06:22:21.616Z,54.18
2019-05-13T06:23:22.187Z,54.18
2019-05-13T06:24:24.551Z,55.71
2019-05-13T06:25:23.265Z,55.20
2019-05-13T06:26:23.495Z,54.18
2019-05-13T06:27:21.326Z,55.07
2019-05-13T06:28:21.751Z,56.12
2019-05-13T06:29:22.249Z,55.28
2019-05-13T06:30:21.767Z,54.57
2019-05-13T06:31:21.601Z,54.16
2019-05-13T06:32:25.470Z,53.64
2019-05-13T06:33:21.344Z,54.26
2019-05-13T06:34:21.481Z,54.05
2019-05-13T06:35:21.862Z,54.16
2019-05-13T06:36:22.161Z,55.28
2019-05-13T06:37:21.699Z,54.94
2019-05-13T06:38:22.506Z,53.83
2019-05-13T06:39:22.245Z,55.35
2019-05-13T06:40:21.403Z,54.44
2019-05-13T06:41:21.931Z,52.70
2019-05-13T06:42:22.207Z,53.31
2019-05-13T06:43:21.087Z,53.62
2019-05-13T06:44:21.449Z,54.13
2019-05-13T06:45:21.572Z,54.11
2019-05-13T06:46:21.834Z,53.70
2019-05-13T06:47:21.953Z,53.29
2019-05-13T06:48:20.065Z,52.96
2019-05-13T06:49:21.632Z,54.21
2019-05-13T06:50:21.945Z,53.78
2019-05-13T06:51:22.051Z,53.47
2019-05-13T06:52:21.201Z,53.47
2019-05-13T06:53:21.756Z,53.24
2019-05-13T06:54:21.925Z,52.63
2019-05-13T06:55:21.297Z,53.75
2019-05-13T06:56:21.790Z,53.11
2019-05-13T06:57:22.012Z,52.20
2019-05-13T06:58:22.099Z,51.59
2019-05-13T06:59:22.157Z,53.19
2019-05-13T07:00:21.578Z,52.50
2019-05-13T07:01:21.719Z,52.08
2019-05-13T07:02:21.583Z,51.87
2019-05-13T07:03:21.957Z,51.56
2019-05-13T07:04:21.955Z,52.05
2019-05-13T07:05:22.473Z,51.23
2019-05-13T07:06:21.675Z,50.42
2019-05-13T07:07:21.892Z,51.03
2019-05-13T07:08:22.026Z,51.34
2019-05-13T07:09:21.634Z,50.50
2019-05-13T07:10:21.705Z,50.29
2019-05-13T07:11:22.352Z,50.20
2019-05-13T07:12:21.939Z,49.66
2019-05-13T07:13:21.857Z,50.27
2019-05-13T07:14:21.826Z,51.39
2019-05-13T07:15:22.306Z,50.56
2019-05-13T07:16:22.212Z,50.76
2019-05-13T07:17:22.346Z,50.04
2019-05-13T07:18:21.761Z,48.80
2019-05-13T07:19:19.714Z,48.07
2019-05-13T07:20:22.356Z,45.87
2019-05-13T07:21:21.745Z,44.27
2019-05-13T07:22:22.868Z,42.76
2019-05-13T07:23:22.244Z,40.02
2019-05-13T07:24:21.420Z,36.90
2019-05-13T07:25:22.060Z,35.19
2019-05-13T07:26:22.042Z,32.71
2019-05-13T07:27:19.704Z,30.49
2019-05-13T07:28:21.935Z,30.59
2019-05-13T07:29:20.154Z,31.73
2019-05-13T07:30:21.375Z,32.78
2019-05-13T07:31:21.763Z,34.53
2019-05-13T07:32:21.953Z,34.67
2019-05-13T07:33:21.367Z,36.21
2019-05-13T07:34:24.110Z,36.73
2019-05-13T07:35:22.680Z,35.43
2019-05-13T07:36:19.557Z,36.32
2019-05-13T07:37:21.239Z,34.76
2019-05-13T07:38:22.030Z,32.86
2019-05-13T07:39:22.178Z,31.46
2019-05-13T07:40:22.077Z,29.00
2019-05-13T07:41:33.130Z,27.74
2019-05-13T07:42:22.233Z,26.89
2019-05-13T07:43:21.511Z,23.68
2019-05-13T07:44:22.172Z,23.16
2019-05-13T07:45:21.311Z,23.46
2019-05-13T07:46:21.791Z,22.24
2019-05-13T07:47:22.056Z,22.50
2019-05-13T07:48:24.078Z,22.28
2019-05-13T07:49:22.527Z,21.09
2019-05-13T07:50:21.658Z,20.48
2019-05-13T07:51:19.413Z,20.36
2019-05-13T07:52:19.430Z,20.04
2019-05-13T07:53:22.118Z,19.34
2019-05-13T07:54:21.871Z,18.75
2019-05-13T07:55:19.346Z,18.92
2019-05-13T07:56:21.569Z,18.24
2019-05-13T07:57:21.517Z,18.03
2019-05-13T07:58:22.653Z,17.82
2019-05-13T07:59:21.119Z,17.03
2019-05-13T08:00:27.410Z,17.42
2019-05-13T08:01:21.915Z,17.41
2019-05-13T08:02:21.714Z,16.91
2019-05-13T08:03:21.432Z,17.00
2019-05-13T08:04:25.610Z,16.22
2019-05-13T08:05:22.372Z,15.55
2019-05-13T08:06:21.961Z,16.82
2019-05-13T08:07:19.253Z,16.82
2019-05-13T08:08:19.208Z,16.91
2019-05-13T08:09:21.456Z,17.34
2019-05-13T08:10:21.769Z,17.86
2019-05-13T08:11:19.182Z,16.86
2019-05-13T08:12:21.460Z,16.74
2019-05-13T08:13:19.159Z,16.07
2019-05-13T08:14:21.628Z,16.67
2019-05-13T08:15:19.170Z,17.19
2019-05-13T08:16:22.097Z,18.89
2019-05-13T08:17:19.129Z,18.29
2019-05-13T08:18:19.115Z,18.89
2019-05-13T08:19:21.613Z,20.03
2019-05-13T08:20:21.895Z,18.51
2019-05-13T08:21:21.378Z,17.88
2019-05-13T08:22:21.814Z,16.58
2019-05-13T08:23:21.546Z,16.95
2019-05-13T08:24:19.060Z,16.53
2019-05-13T08:25:19.045Z,16.22
2019-05-13T08:26:21.541Z,16.89
2019-05-13T08:27:21.635Z,16.21
2019-05-13T08:28:22.386Z,16.66
2019-05-13T08:29:19.016Z,17.34
2019-05-13T08:30:19.008Z,15.87
2019-05-13T08:31:21.425Z,15.89
2019-05-13T08:32:19.032Z,15.59
2019-05-13T08:33:18.989Z,16.38
2019-05-13T08:34:18.964Z,17.44
2019-05-13T08:35:18.955Z,19.46
2019-05-13T08:36:18.947Z,19.88
2019-05-13T08:37:21.533Z,18.95
2019-05-13T08:38:18.934Z,19.36
2019-05-13T08:39:21.438Z,19.20
2019-05-13T08:40:20.338Z,17.99
2019-05-13T08:41:21.154Z,16.99
2019-05-13T08:42:20.052Z,18.00
2019-05-13T08:43:18.885Z,18.01
2019-05-13T08:44:21.476Z,19.15
2019-05-13T08:45:18.861Z,16.64
2019-05-13T08:46:18.857Z,17.00
2019-05-13T08:47:18.875Z,16.09
2019-05-13T08:48:18.833Z,16.44
2019-05-13T08:49:18.831Z,14.96
2019-05-13T08:50:18.823Z,15.23
2019-05-13T08:51:18.812Z,15.41
2019-05-13T08:52:18.837Z,14.92
2019-05-13T08:53:21.127Z,15.75
2019-05-13T08:54:18.782Z,16.99
2019-05-13T08:55:21.269Z,18.12
2019-05-13T08:56:18.771Z,19.14
2019-05-13T08:57:18.752Z,20.27
2019-05-13T08:58:18.821Z,19.27
2019-05-13T08:59:18.735Z,19.90
2019-05-13T09:00:18.725Z,19.66
2019-05-13T09:01:18.720Z,19.20
2019-05-13T09:02:18.741Z,17.68
2019-05-13T09:03:21.327Z,16.28
2019-05-13T09:04:18.692Z,14.59
2019-05-13T09:05:18.680Z,14.28
2019-05-13T09:06:18.670Z,13.19
2019-05-13T09:07:21.875Z,12.78
2019-05-13T09:08:22.181Z,12.97
2019-05-13T09:09:18.649Z,12.57
2019-05-13T09:10:18.641Z,13.44
2019-05-13T09:11:18.625Z,12.77
2019-05-13T09:12:29.522Z,14.67
2019-05-13T09:13:22.182Z,15.60
2019-05-13T09:14:18.615Z,16.62
2019-05-13T09:15:18.596Z,17.55
2019-05-13T09:16:18.586Z,16.85
2019-05-13T09:17:18.594Z,16.70
2019-05-13T09:18:18.608Z,16.46
2019-05-13T09:19:18.566Z,15.45
2019-05-13T09:20:18.549Z,14.94
2019-05-13T09:21:18.554Z,14.64
2019-05-13T09:22:18.534Z,15.04
2019-05-13T09:23:18.555Z,15.47
2019-05-13T09:24:26.090Z,15.24
2019-05-13T09:25:21.515Z,15.38
2019-05-13T09:26:18.497Z,14.18
2019-05-13T09:27:18.490Z,13.68
2019-05-13T09:28:18.514Z,13.29
2019-05-13T09:29:18.482Z,12.79
2019-05-13T09:30:18.461Z,12.09
2019-05-13T09:31:18.452Z,11.79
2019-05-13T09:32:18.456Z,11.68
2019-05-13T09:33:18.475Z,11.02
2019-05-13T09:34:18.433Z,10.96
2019-05-13T09:35:18.436Z,12.84
2019-05-13T09:36:18.417Z,12.82
2019-05-13T09:37:18.432Z,12.13
2019-05-13T09:38:18.403Z,11.87
2019-05-13T09:39:18.388Z,11.96
2019-05-13T09:40:18.381Z,12.83
2019-05-13T09:41:18.378Z,12.14
2019-05-13T09:42:18.433Z,13.02
2019-05-13T09:43:18.395Z,12.95
2019-05-13T09:44:18.348Z,13.15
2019-05-13T09:45:18.349Z,14.65
2019-05-13T09:46:18.341Z,13.56
2019-05-13T09:47:18.328Z,13.37
2019-05-13T09:48:18.354Z,13.26
2019-05-13T09:49:20.177Z,14.18
2019-05-13T09:50:29.390Z,15.59
2019-05-13T09:51:21.492Z,15.53
2019-05-13T09:52:18.283Z,17.13
2019-05-13T09:53:18.308Z,17.26
2019-05-13T09:54:18.270Z,16.04
2019-05-13T09:55:26.384Z,16.68
2019-05-13T09:56:19.249Z,16.80
2019-05-13T09:57:18.238Z,17.12
2019-05-13T09:58:18.256Z,18.61
2019-05-13T09:59:18.223Z,17.13
2019-05-13T10:00:18.213Z,15.50
2019-05-13T10:01:18.210Z,13.89
2019-05-13T10:02:18.183Z,13.39
2019-05-13T10:03:18.207Z,14.63
2019-05-13T10:04:18.171Z,15.27
2019-05-13T10:05:18.166Z,16.49
2019-05-13T10:06:18.154Z,17.21
2019-05-13T10:07:18.147Z,17.35
2019-05-13T10:08:18.163Z,17.77
2019-05-13T10:09:18.122Z,18.01
2019-05-13T10:10:18.111Z,19.12
2019-05-13T10:11:18.099Z,20.43
2019-05-13T10:12:18.091Z,21.15
2019-05-13T10:13:18.117Z,21.08
2019-05-13T10:14:18.114Z,21.30
2019-05-13T10:15:18.062Z,21.61
2019-05-13T10:16:18.051Z,22.73
2019-05-13T10:17:18.083Z,22.93
2019-05-13T10:18:18.060Z,22.45
2019-05-13T10:19:18.057Z,21.63
2019-05-13T10:20:18.013Z,22.25
2019-05-13T10:21:17.996Z,21.36
2019-05-13T10:22:17.987Z,22.17
2019-05-13T10:23:26.617Z,21.69
2019-05-13T10:24:17.974Z,22.89
2019-05-13T10:25:18.075Z,22.71
2019-05-13T10:26:17.955Z,23.72
2019-05-13T10:27:19.076Z,23.93
2019-05-13T10:28:17.926Z,22.63
2019-05-13T10:29:17.951Z,24.54
2019-05-13T10:30:17.910Z,25.24
2019-05-13T10:31:17.895Z,26.06
2019-05-13T10:32:17.888Z,26.17
2019-05-13T10:33:17.875Z,24.98
2019-05-13T10:34:17.892Z,27.00
2019-05-13T10:35:18.003Z,26.50
2019-05-13T10:36:17.851Z,25.17
2019-05-13T10:37:17.839Z,25.96
2019-05-13T10:38:17.826Z,25.66
2019-05-13T10:39:17.830Z,25.05
2019-05-13T10:40:17.800Z,26.03
2019-05-13T10:41:17.793Z,26.63
2019-05-13T10:42:17.779Z,25.42
2019-05-13T10:43:29.447Z,24.62
2019-05-13T10:44:18.795Z,25.52
2019-05-13T10:45:17.797Z,25.22
2019-05-13T10:46:17.736Z,24.02
2019-05-13T10:47:17.735Z,24.13
2019-05-13T10:48:17.724Z,23.93
2019-05-13T10:49:17.742Z,23.63
2019-05-13T10:50:17.720Z,23.54
2019-05-13T10:51:17.684Z,23.95
2019-05-13T10:52:17.673Z,24.36
2019-05-13T10:53:17.694Z,24.47
2019-05-13T10:54:17.682Z,25.48
2019-05-13T10:55:17.655Z,25.38
2019-05-13T10:56:17.643Z,26.09
2019-05-13T10:57:17.627Z,24.99
2019-05-13T10:58:17.687Z,24.71
2019-05-13T10:59:17.601Z,26.20
2019-05-13T11:00:17.590Z,24.18
2019-05-13T11:01:17.586Z,24.48
2019-05-13T11:02:17.576Z,23.68
2019-05-13T11:03:17.556Z,23.57
2019-05-13T11:04:17.582Z,24.17
2019-05-13T11:05:17.541Z,22.57
2019-05-13T11:06:17.531Z,23.97
2019-05-13T11:07:17.521Z,22.97
2019-05-13T11:08:17.517Z,22.88
2019-05-13T11:09:17.534Z,23.57
2019-05-13T11:10:17.492Z,23.26
2019-05-13T11:11:17.473Z,23.37
2019-05-13T11:12:17.463Z,23.16
2019-05-13T11:13:17.451Z,22.97
2019-05-13T11:14:17.474Z,22.78
2019-05-13T11:15:17.440Z,22.88
2019-05-13T11:16:17.432Z,21.39
2019-05-13T11:17:23.176Z,23.30
2019-05-13T11:18:19.638Z,22.91
2019-05-13T11:19:17.424Z,23.62
2019-05-13T11:20:17.383Z,24.02
2019-05-13T11:21:17.379Z,22.63
2019-05-13T11:22:17.400Z,22.83
2019-05-13T11:23:17.350Z,22.73
2019-05-13T11:24:17.343Z,22.74
2019-05-13T11:25:17.359Z,22.84
2019-05-13T11:26:17.316Z,22.94
2019-05-13T11:27:17.311Z,23.55
2019-05-13T11:28:17.297Z,25.46
2019-05-13T11:29:17.287Z,26.56
2019-05-13T11:30:17.328Z,23.66
2019-05-13T11:31:17.268Z,24.46
2019-05-13T11:32:17.253Z,24.78
2019-05-13T11:33:17.252Z,24.78
2019-05-13T11:34:17.264Z,25.18
2019-05-13T11:35:17.220Z,25.28
2019-05-13T11:36:19.146Z,25.70
2019-05-13T11:37:17.203Z,25.70
2019-05-13T11:38:17.186Z,26.09
2019-05-13T11:39:17.210Z,26.20
2019-05-13T11:40:17.170Z,26.29
2019-05-13T11:41:17.161Z,26.09
2019-05-13T11:42:17.150Z,26.09
2019-05-13T11:43:17.133Z,26.29
2019-05-13T11:44:17.332Z,27.39
2019-05-13T11:45:17.113Z,26.28
2019-05-13T11:46:17.140Z,26.07
2019-05-13T11:47:17.095Z,25.97
2019-05-13T11:48:17.096Z,26.47
2019-05-13T11:49:17.102Z,26.37
2019-05-13T11:50:17.060Z,25.78
2019-05-13T11:51:17.102Z,25.87
2019-05-13T11:52:17.043Z,26.17
2019-05-13T11:53:31.425Z,25.47
2019-05-13T11:54:18.018Z,25.57
2019-05-13T11:55:17.005Z,26.57
2019-05-13T11:56:17.031Z,26.07
2019-05-13T11:57:16.980Z,26.27
2019-05-13T11:58:16.982Z,26.67
2019-05-13T11:59:16.965Z,25.77
2019-05-13T12:00:16.954Z,25.87
2019-05-13T12:01:16.942Z,24.77
2019-05-13T12:02:16.965Z,25.16
2019-05-13T12:03:16.916Z,26.77
2019-05-13T12:04:16.909Z,25.57
2019-05-13T12:05:16.901Z,26.07
2019-05-13T12:06:16.889Z,25.78
2019-05-13T12:07:16.911Z,25.58
2019-05-13T12:08:16.861Z,25.38
2019-05-13T12:09:16.882Z,24.29
2019-05-13T12:10:16.875Z,24.49
2019-05-13T12:11:16.836Z,26.50
2019-05-13T12:12:16.823Z,26.28
2019-05-13T12:13:16.846Z,25.57
2019-05-13T12:14:39.133Z,25.27
2019-05-13T12:15:30.714Z,23.96
2019-05-13T12:16:17.771Z,22.86
2019-05-13T12:17:16.770Z,22.96
2019-05-13T12:18:16.789Z,22.85
2019-05-13T12:19:16.752Z,23.85
2019-05-13T12:20:16.739Z,23.55
2019-05-13T12:21:16.719Z,23.68
2019-05-13T12:22:16.713Z,24.38
2019-05-13T12:23:16.705Z,23.07
2019-05-13T12:24:16.725Z,22.36
2019-05-13T12:25:16.712Z,23.36
2019-05-13T12:26:16.674Z,22.86
2019-05-13T12:27:16.700Z,22.66
2019-05-13T12:28:16.684Z,22.36
2019-05-13T12:29:19.125Z,21.65
2019-05-13T12:30:16.651Z,22.55
2019-05-13T12:31:16.621Z,22.75
2019-05-13T12:32:16.611Z,23.46
2019-05-13T12:33:16.598Z,23.66
2019-05-13T12:34:16.585Z,23.07
2019-05-13T12:35:16.602Z,22.66
2019-05-13T12:36:18.640Z,24.16
2019-05-13T12:37:17.552Z,23.66
2019-05-13T12:38:16.544Z,22.76
2019-05-13T12:39:16.527Z,23.66
2019-05-13T12:40:16.543Z,24.26
2019-05-13T12:41:16.510Z,24.08
2019-05-13T12:42:16.494Z,22.97
2019-05-13T12:43:16.491Z,22.58
2019-05-13T12:44:16.478Z,24.19
2019-05-13T12:45:16.490Z,24.20
2019-05-13T12:46:16.457Z,22.68
2019-05-13T12:47:16.469Z,24.08
2019-05-13T12:48:16.432Z,23.68
2019-05-13T12:49:16.416Z,24.08
2019-05-13T12:50:16.436Z,23.46
2019-05-13T12:51:16.405Z,23.66
2019-05-13T12:52:16.392Z,23.76